TimePDT,TemperatureF,Dew PointF,Humidity,Sea Level PressureIn,VisibilityMPH,Wind Direction,Wind SpeedMPH,Gust SpeedMPH,PrecipitationIn,Events,Conditions,WindDirDegrees,DateUTC
12:53 AM,30.9,19.0,61,30.11,10.0,South,12.7,-,N/A,,Clear,170,2013-10-23 07:53:00
1:53 AM,30.9,19.0,61,30.10,10.0,South,10.4,-,N/A,,Clear,170,2013-10-23 08:53:00
2:53 AM,28.9,19.0,67,30.09,10.0,South,9.2,-,N/A,,Clear,180,2013-10-23 09:53:00
3:53 AM,26.1,18.0,71,30.11,10.0,South,9.2,-,N/A,,Clear,180,2013-10-23 10:53:00
4:53 AM,26.1,19.0,75,30.11,10.0,South,10.4,-,N/A,,Clear,180,2013-10-23 11:53:00
5:53 AM,26.1,18.0,71,30.15,10.0,South,9.2,-,N/A,,Clear,170,2013-10-23 12:53:00
6:53 AM,26.1,19.0,75,30.19,10.0,South,10.4,-,N/A,,Clear,170,2013-10-23 13:53:00
7:53 AM,30.0,19.9,66,30.19,10.0,South,9.2,-,N/A,,Clear,180,2013-10-23 14:53:00
9:53 AM,50.0,21.9,33,30.14,10.0,South,3.5,-,N/A,,Clear,180,2013-10-23 16:53:00
10:53 AM,57.0,19.9,24,30.11,10.0,NNE,3.5,-,N/A,,Clear,30,2013-10-23 17:53:00
11:53 AM,61.0,19.9,21,30.08,10.0,ENE,3.5,-,N/A,,Clear,70,2013-10-23 18:53:00
12:53 PM,64.9,19.0,17,30.04,10.0,North,5.8,-,N/A,,Clear,350,2013-10-23 19:53:00
1:53 PM,66.0,18.0,16,30.01,10.0,NNW,5.8,-,N/A,,Clear,340,2013-10-23 20:53:00
2:53 PM,66.9,18.0,15,30.00,10.0,North,6.9,-,N/A,,Clear,360,2013-10-23 21:53:00
3:53 PM,66.9,17.1,15,30.01,10.0,Calm,Calm,-,N/A,,Clear,0,2013-10-23 22:53:00
4:53 PM,64.0,17.1,16,30.02,10.0,South,6.9,-,N/A,,Clear,180,2013-10-23 23:53:00
5:53 PM,53.1,19.0,26,30.07,10.0,SSW,10.4,-,N/A,,Clear,210,2013-10-24 00:53:00
6:53 PM,48.0,19.0,32,30.12,10.0,South,11.5,-,N/A,,Clear,170,2013-10-24 01:53:00
7:53 PM,43.0,19.9,40,30.12,10.0,SSE,10.4,-,N/A,,Clear,160,2013-10-24 02:53:00
8:53 PM,39.0,19.9,46,30.11,10.0,South,4.6,-,N/A,,Clear,170,2013-10-24 03:53:00
9:53 PM,37.9,21.0,51,30.08,10.0,SSE,9.2,-,N/A,,Clear,160,2013-10-24 04:53:00
10:53 PM,35.1,19.9,54,30.07,10.0,South,3.5,-,N/A,,Clear,190,2013-10-24 05:53:00
11:53 PM,32.0,19.9,61,30.07,10.0,South,9.2,-,N/A,,Clear,170,2013-10-24 06:53:00